Airfield :
LOGIN :

Register | Disclaimer

   EN    FR    IT 

 










Legend :    VFR   Marginal VFR   IFR   Intensive IFR   Very Intensive IFR
Visi :
Ceiling :
>= 8 km
>= 3000ft
5 to 8 km
1000 to 3000 ft
1500m to 5 km
500 to 1000 ft
800 to 1500m
200 to 500 ft
< 800m
< 200 ft
Symbols :   Thunderstorms  Fog  Heavy snow  Heavy precipitations  Wind > 20 kt
SIGMETs :     Misc.  Thunderstorms  Icing  Turbulence  Mountain Waves  Volcanic Ashes






- Airport Elevation : 636 ft


LPBJ - Beja Air Base

CURRENT METAR :
  • 021100Z 23007KT 200V290 CAVOK 27/15 Q1017

EXPIRED METARs :
  • 021000Z 23007KT 210V270 CAVOK 25/15 Q1017
  • 020900Z VRB04KT CAVOK 23/13 Q1017

TAF TAF LPBJ
Valid from the 02 at 12:00 until the 03 at 12:00 UTC


021101Z 0212/0312 22008KT CAVOK
PROB30
TEMPO 0215/0219 3000 TSRA SCT045 SCT070CB
BECMG 0216/0218 29010KT
BECMG 0220/0222 VRB02KT
BECMG 0300/0303 BKN020
PROB40 0302/0306 BKN005
BECMG 0310/0312 CAVOK



MET'MAP, your aeronautical weather chart ! - Copyright ORBIFLY December 2007 - Disclaimer

ORBIFLY MET'MAP TEAM :

Programming & Development : Alexandra Zaïnal
Original concept : Baudouin d'Aumeries
Technical & hardware support : Manuel Goepfert
Assistance : Marc-Olivier Méhu




SOURCES & CREDITS :

   NOAA